Time;durP1;ratioP1;P1;durP2;ratioP2;P2;SDS_P1;SDS_P2;PMS_P1;PMS_P2;Temp;Humidity;BMP_temperature;BMP_pressure;BME280_temperature;BME280_humidity;BME280_pressure;Samples;Min_cycle;Max_cycle;Signal;HPM_P1;HPM_P2
2022/08/04 00:00:29;;;;;;;4.30;3.22;;;;;;;21.03;49.63;94059.38;5077823;28;20039;-79
2022/08/04 00:03:10;;;;;;;3.67;2.95;;;;;;;21.03;49.70;94054.75;5073379;28;20028;-78
2022/08/04 00:05:53;;;;;;;3.97;2.92;;;;;;;21.02;49.43;94063.25;5074424;28;20030;-78
2022/08/04 00:08:31;;;;;;;4.43;2.78;;;;;;;21.02;49.35;94052.44;5083658;28;20514;-78
2022/08/04 00:11:00;;;;;;;3.25;2.83;;;;;;;20.99;49.13;94047.75;5076175;28;20036;-78
2022/08/04 00:13:29;;;;;;;5.45;3.15;;;;;;;20.99;49.17;94053.94;5074287;28;20020;-78
2022/08/04 00:16:03;;;;;;;5.43;2.97;;;;;;;20.86;49.27;94044.53;5077361;28;20075;-78
2022/08/04 00:18:34;;;;;;;4.47;3.08;;;;;;;20.88;49.51;94063.09;5074387;28;20119;-78
2022/08/04 00:21:05;;;;;;;4.90;3.25;;;;;;;20.77;49.93;94035.19;5073480;28;20581;-78
2022/08/04 00:23:34;;;;;;;3.40;3.10;;;;;;;20.77;49.99;94029.78;5074492;28;20035;-77
2022/08/04 00:26:00;;;;;;;3.72;3.38;;;;;;;20.74;50.07;94025.88;5075089;28;20108;-78
2022/08/04 00:28:27;;;;;;;3.55;2.88;;;;;;;20.80;49.91;94029.03;5074338;28;20016;-77
2022/08/04 00:30:53;;;;;;;4.90;2.75;;;;;;;20.79;49.66;94033.66;5072863;28;20036;-77
2022/08/04 00:33:19;;;;;;;4.60;2.22;;;;;;;20.78;49.74;94031.31;5074051;28;20082;-78
2022/08/04 00:35:47;;;;;;;4.57;2.88;;;;;;;20.53;49.74;93998.66;5075631;28;20448;-77
2022/08/04 00:38:15;;;;;;;3.10;2.80;;;;;;;20.59;49.45;94019.56;5068721;28;20459;-77
2022/08/04 00:40:56;;;;;;;3.17;2.40;;;;;;;20.69;49.31;94034.31;5074026;28;20024;-79
2022/08/04 00:43:43;;;;;;;3.65;2.78;;;;;;;20.69;49.53;94044.34;5082098;28;20083;-78
2022/08/04 00:46:41;;;;;;;2.45;2.22;;;;;;;20.68;49.29;94048.22;5082549;28;20050;-78
2022/08/04 00:49:25;;;;;;;3.15;2.20;;;;;;;20.64;49.30;94050.09;5073596;28;20409;-77
2022/08/04 00:52:09;;;;;;;2.92;2.63;;;;;;;20.60;49.65;94048.13;5075630;28;20023;-78
2022/08/04 00:55:02;;;;;;;4.22;2.97;;;;;;;20.59;49.78;94053.91;5073470;28;20347;-77
2022/08/04 00:57:27;;;;;;;3.22;2.38;;;;;;;20.57;50.17;94057.00;5072706;28;20139;-77
2022/08/04 01:00:14;;;;;;;3.90;2.28;;;;;;;20.45;50.27;94038.31;5074077;28;20139;-79
2022/08/04 01:02:51;;;;;;;5.03;2.88;;;;;;;20.54;50.68;94063.13;5075244;28;20085;-78
2022/08/04 01:05:20;;;;;;;8.32;3.25;;;;;;;20.50;50.61;94062.31;5074239;28;20020;-76
2022/08/04 01:08:15;;;;;;;3.10;2.67;;;;;;;20.13;50.13;93993.97;5074355;28;20023;-77
2022/08/04 01:11:08;;;;;;;2.63;2.40;;;;;;;20.47;49.74;94057.66;5070532;28;20115;-77
2022/08/04 01:13:33;;;;;;;2.33;1.92;;;;;;;20.47;49.58;94064.97;5075375;28;20482;-78
2022/08/04 01:16:04;;;;;;;2.20;1.90;;;;;;;20.46;49.29;94058.78;5074649;28;20032;-77
2022/08/04 01:19:23;;;;;;;2.70;2.42;;;;;;;20.42;49.38;94062.59;5081437;28;20031;-78
2022/08/04 01:22:14;;;;;;;2.60;2.10;;;;;;;20.30;49.69;94044.72;5012814;28;20034;-80
2022/08/04 01:25:17;;;;;;;2.67;2.42;;;;;;;20.43;49.54;94070.34;5073636;28;20036;-78
2022/08/04 01:28:03;;;;;;;2.85;2.50;;;;;;;20.36;49.65;94070.25;5075370;28;20426;-77
2022/08/04 01:30:32;;;;;;;5.10;2.97;;;;;;;20.34;49.87;94067.13;5074089;28;20025;-78
2022/08/04 01:33:09;;;;;;;2.97;2.78;;;;;;;20.35;49.92;94063.28;5074043;28;20028;-78
2022/08/04 01:35:53;;;;;;;2.90;2.47;;;;;;;20.33;50.39;94054.03;5073626;28;20071;-76
2022/08/04 01:38:29;;;;;;;4.77;3.37;;;;;;;20.32;50.88;94052.47;5073294;28;20142;-78
2022/08/04 01:41:13;;;;;;;3.45;2.90;;;;;;;20.27;51.18;94040.06;5072598;28;20062;-78
2022/08/04 01:43:45;;;;;;;3.35;2.92;;;;;;;20.27;51.33;94042.75;5073768;28;20043;-77
2022/08/04 01:46:13;;;;;;;5.78;3.08;;;;;;;20.24;51.33;94035.38;5070701;28;20505;-78
2022/08/04 01:48:39;;;;;;;3.17;2.80;;;;;;;20.26;51.18;94043.13;5072804;28;20025;-77
2022/08/04 01:51:07;;;;;;;3.80;2.40;;;;;;;20.17;51.01;94040.72;5071755;28;20103;-77
2022/08/04 01:53:37;;;;;;;2.20;1.92;;;;;;;20.17;50.61;94043.41;5076219;28;20033;-77
2022/08/04 01:56:05;;;;;;;3.33;2.28;;;;;;;20.17;50.16;94051.50;5071909;28;20067;-79
2022/08/04 01:58:34;;;;;;;2.22;2.03;;;;;;;20.15;49.67;94053.75;5073623;28;20020;-77
2022/08/04 02:01:04;;;;;;;2.90;2.30;;;;;;;20.13;49.81;94066.88;5073932;28;20024;-79
2022/08/04 02:03:31;;;;;;;2.17;1.83;;;;;;;19.69;50.24;94016.19;5072629;28;20050;-78
2022/08/04 02:06:36;;;;;;;2.90;2.60;;;;;;;19.98;50.50;94059.72;5073517;28;20082;-78
2022/08/04 02:09:23;;;;;;;3.40;3.10;;;;;;;20.00;51.33;94060.91;5071906;28;20028;-78
2022/08/04 02:11:57;;;;;;;5.82;3.38;;;;;;;20.02;51.51;94063.25;5073514;28;20032;-79
2022/08/04 02:14:44;;;;;;;5.03;3.47;;;;;;;19.98;52.00;94055.13;5073054;28;20493;-77
2022/08/04 02:17:13;;;;;;;3.85;2.83;;;;;;;19.99;51.58;94047.78;5072901;28;20105;-77
2022/08/04 02:19:59;;;;;;;3.72;2.95;;;;;;;19.97;51.31;94052.78;5071287;28;20083;-79
2022/08/04 02:22:27;;;;;;;3.15;2.85;;;;;;;19.93;51.39;94041.94;5071883;28;20035;-79
2022/08/04 02:25:16;;;;;;;2.53;2.25;;;;;;;19.97;51.32;94042.75;5069666;28;20035;-77
2022/08/04 02:28:10;;;;;;;3.20;2.88;;;;;;;19.99;51.18;94045.09;5071869;28;20062;-79
2022/08/04 02:30:56;;;;;;;3.30;3.00;;;;;;;19.95;51.30;94033.44;5071550;28;20032;-77
2022/08/04 02:33:34;;;;;;;2.85;2.63;;;;;;;19.82;50.56;94014.03;5071489;28;20035;-78
2022/08/04 02:36:01;;;;;;;4.38;2.45;;;;;;;;;;5072830;28;20095;-78
2022/08/04 02:38:31;;;;;;;2.55;2.35;;;;;;;19.94;50.52;94040.00;5073420;28;20166;-77
2022/08/04 02:41:00;;;;;;;5.13;2.60;;;;;;;19.87;50.64;94039.91;5073904;28;20487;-78
2022/08/04 02:43:29;;;;;;;5.72;2.65;;;;;;;19.80;50.49;94031.75;5072481;28;20024;-78
2022/08/04 02:45:56;;;;;;;4.57;2.58;;;;;;;19.77;50.86;94043.25;5074408;28;20493;-78
2022/08/04 02:48:24;;;;;;;3.30;2.80;;;;;;;19.73;51.02;94054.78;5071247;28;20139;-78
2022/08/04 02:50:53;;;;;;;4.35;2.72;;;;;;;19.62;51.16;94042.28;5072924;28;20506;-77
2022/08/04 02:53:21;;;;;;;3.83;2.95;;;;;;;19.64;51.67;94051.56;5073588;28;20276;-78
2022/08/04 02:55:47;;;;;;;4.20;3.08;;;;;;;19.54;51.73;94027.13;5070804;28;20178;-78
2022/08/04 02:58:17;;;;;;;3.88;2.78;;;;;;;19.71;52.25;94050.88;5072891;28;20080;-78
2022/08/04 03:00:44;;;;;;;5.95;4.05;;;;;;;19.51;52.42;94031.31;5073615;28;20063;-78
2022/08/04 03:03:27;;;;;;;6.10;3.63;;;;;;;19.66;52.43;94045.78;5071454;28;20115;-78
2022/08/04 03:06:11;;;;;;;4.50;3.53;;;;;;;19.74;52.45;94063.66;5074067;28;20070;-78
2022/08/04 03:09:01;;;;;;;4.22;3.00;;;;;;;19.71;52.29;94061.66;5072042;28;20062;-76
2022/08/04 03:11:44;;;;;;;4.05;2.85;;;;;;;19.68;52.48;94057.00;5074187;28;20029;-76
2022/08/04 03:14:28;;;;;;;3.42;3.08;;;;;;;19.65;52.44;94055.06;5070381;28;20025;-77
2022/08/04 03:17:18;;;;;;;4.80;2.80;;;;;;;19.34;52.00;94015.66;5072009;28;20051;-78
2022/08/04 03:20:08;;;;;;;3.78;2.58;;;;;;;19.58;52.02;94057.63;5071182;28;20080;-78
2022/08/04 03:22:54;;;;;;;3.30;2.88;;;;;;;19.52;51.99;94059.88;5072818;28;20039;-77
2022/08/04 03:25:47;;;;;;;3.47;3.10;;;;;;;19.51;52.07;94052.91;5069686;28;20110;-78
2022/08/04 03:28:43;;;;;;;4.07;3.75;;;;;;;19.46;52.46;94055.91;5073518;28;20047;-76
2022/08/04 03:31:46;;;;;;;4.15;3.30;;;;;;;19.41;52.76;94056.19;5071915;28;20462;-77
2022/08/04 03:34:14;;;;;;;4.97;3.90;;;;;;;19.37;53.17;94052.66;5074272;28;20029;-77
2022/08/04 03:37:21;;;;;;;3.30;2.95;;;;;;;19.22;53.40;94029.31;5075715;28;20429;-78
2022/08/04 03:40:09;;;;;;;6.97;3.80;;;;;;;19.36;53.66;94056.50;5076553;28;20031;-77
2022/08/04 03:43:01;;;;;;;5.68;3.42;;;;;;;19.38;53.42;94048.84;5060327;28;20119;-78
2022/08/04 03:45:35;;;;;;;4.18;3.08;;;;;;;19.38;53.09;94048.06;5072568;28;20032;-77
2022/08/04 03:48:06;;;;;;;3.13;2.83;;;;;;;19.40;53.04;94046.56;5074714;28;20088;-78
2022/08/04 03:53:38;;;;;;;;;;;;;;;19.38;52.64;94051.53;5075172;28;20039;-78
2022/08/04 03:56:15;;;;;;;3.83;2.67;;;;;;;19.36;52.83;94051.09;5073687;28;19916;-78
2022/08/04 03:59:02;;;;;;;2.97;2.47;;;;;;;19.37;52.93;94055.38;5076624;28;20040;-78
2022/08/04 04:01:36;;;;;;;2.97;2.67;;;;;;;19.38;53.01;94056.94;5075879;28;20030;-77
2022/08/04 04:04:07;;;;;;;5.32;3.38;;;;;;;19.40;53.38;94053.88;5074021;28;20040;-77
2022/08/04 04:06:57;;;;;;;2.55;2.35;;;;;;;19.42;54.25;94060.44;5074958;28;20390;-78
2022/08/04 04:09:34;;;;;;;4.35;3.40;;;;;;;19.46;54.66;94061.31;5076950;28;20039;-78
2022/08/04 04:12:24;;;;;;;3.90;3.45;;;;;;;19.53;55.07;94058.72;5072634;28;20063;-77
2022/08/04 04:14:52;;;;;;;5.05;4.55;;;;;;;19.63;55.57;94054.63;5078263;28;20024;-77
2022/08/04 04:17:55;;;;;;;4.88;4.38;;;;;;;19.80;55.61;94061.44;5074948;28;20115;-76
2022/08/04 04:20:54;;;;;;;8.57;4.97;;;;;;;19.90;55.63;94063.47;5082404;28;20044;-76
2022/08/04 04:23:44;;;;;;;5.55;4.15;;;;;;;19.92;55.73;94070.06;5083511;28;20402;-76
2022/08/04 04:26:21;;;;;;;5.95;4.45;;;;;;;19.89;55.04;94067.31;5073258;28;20571;-78
2022/08/04 04:29:05;;;;;;;6.85;4.75;;;;;;;19.97;54.97;94074.38;5074981;28;20058;-78
2022/08/04 04:31:58;;;;;;;9.93;4.70;;;;;;;19.96;54.52;94078.19;5076068;28;20131;-76
2022/08/04 04:34:42;;;;;;;9.40;5.30;;;;;;;19.97;54.49;94063.56;5074184;28;20029;-79
2022/08/04 04:37:10;;;;;;;9.15;5.25;;;;;;;20.09;54.53;94079.56;5074322;28;20168;-77
2022/08/04 04:39:53;;;;;;;7.07;5.38;;;;;;;20.16;54.52;94066.13;5076982;28;20035;-78
2022/08/04 04:43:10;;;;;;;6.07;5.47;;;;;;;20.23;54.50;94071.66;5074404;28;20032;-78
2022/08/04 04:45:41;;;;;;;;;;;;;;;20.26;54.60;94073.59;5073296;28;20016;-79
2022/08/04 04:48:29;;;;;;;8.25;5.10;;;;;;;20.26;54.44;94070.13;5074813;28;19912;-78
2022/08/04 04:51:24;;;;;;;6.47;5.70;;;;;;;20.31;54.05;94073.28;5075391;28;20043;-77
2022/08/04 04:54:05;;;;;;;6.72;4.78;;;;;;;20.34;54.39;94075.25;5071866;28;20086;-77
2022/08/04 04:56:44;;;;;;;6.75;5.38;;;;;;;20.37;54.32;94082.63;5074955;28;20135;-76
2022/08/04 04:59:14;;;;;;;6.05;5.45;;;;;;;20.40;54.07;94076.47;5074402;28;20028;-77
2022/08/04 05:01:59;;;;;;;6.90;5.68;;;;;;;20.45;54.52;94073.44;5072979;28;20063;-77
2022/08/04 05:05:02;;;;;;;10.15;6.03;;;;;;;20.48;54.32;94072.69;5082689;28;20117;-77
2022/08/04 05:07:42;;;;;;;10.88;5.95;;;;;;;20.50;53.97;94075.81;5075092;28;20035;-77
2022/08/04 05:10:19;;;;;;;6.88;5.05;;;;;;;20.47;54.23;94076.56;5073963;28;20127;-78
2022/08/04 05:13:03;;;;;;;8.35;5.72;;;;;;;20.46;54.44;94075.00;5073627;28;20107;-77
2022/08/04 05:15:36;;;;;;;6.20;5.60;;;;;;;20.47;54.15;94079.28;5072560;28;20027;-78
2022/08/04 05:18:05;;;;;;;7.97;6.07;;;;;;;20.48;54.30;94077.34;5073552;28;20565;-76
2022/08/04 05:20:37;;;;;;;9.00;6.18;;;;;;;20.55;54.28;94086.28;5073937;28;20141;-77
2022/08/04 05:23:18;;;;;;;8.38;6.70;;;;;;;20.64;54.02;94082.50;5074670;28;20048;-78
2022/08/04 05:25:55;;;;;;;7.38;6.53;;;;;;;20.69;53.93;94093.00;5081997;28;20028;-77
2022/08/04 05:28:33;;;;;;;9.52;6.80;;;;;;;20.62;53.99;94085.59;5073388;28;20593;-78
2022/08/04 05:31:07;;;;;;;11.85;7.13;;;;;;;20.75;53.41;94088.81;5075107;28;20036;-78
2022/08/04 05:33:46;;;;;;;8.98;6.35;;;;;;;20.89;53.15;94086.28;5073242;28;20885;-77
2022/08/04 05:36:16;;;;;;;12.65;7.15;;;;;;;20.82;52.86;94075.38;5075033;28;20567;-77
2022/08/04 05:38:43;;;;;;;8.23;6.55;;;;;;;20.92;52.29;94086.31;5072705;28;20070;-76
2022/08/04 05:41:10;;;;;;;11.57;7.78;;;;;;;20.99;52.83;94080.19;5072742;28;20028;-78
2022/08/04 05:43:42;;;;;;;9.02;6.72;;;;;;;21.12;52.75;94078.03;5074667;28;20028;-78
2022/08/04 05:46:08;;;;;;;7.82;6.53;;;;;;;21.33;52.42;94094.41;5072045;28;20437;-76
2022/08/04 05:48:35;;;;;;;10.05;7.10;;;;;;;21.38;52.24;94094.06;5074183;28;20024;-78
2022/08/04 05:51:03;;;;;;;9.35;7.30;;;;;;;21.43;52.07;94091.78;5072841;28;20159;-77
2022/08/04 05:53:30;;;;;;;9.20;6.97;;;;;;;21.37;52.13;94095.22;5074484;28;20020;-77
2022/08/04 05:55:56;;;;;;;9.00;7.22;;;;;;;21.37;52.32;94063.53;5071658;28;20040;-77
2022/08/04 05:58:22;;;;;;;10.15;7.28;;;;;;;21.54;51.66;94072.16;5072191;28;20033;-77
2022/08/04 06:00:50;;;;;;;7.90;6.80;;;;;;;21.59;51.63;94069.13;5072926;28;20086;-76
2022/08/04 06:03:18;;;;;;;8.40;7.10;;;;;;;21.70;51.67;94080.81;5073225;28;20085;-77
2022/08/04 06:05:45;;;;;;;7.95;6.88;;;;;;;21.59;51.74;94083.44;5074301;28;20021;-76
2022/08/04 06:08:11;;;;;;;8.27;6.82;;;;;;;21.70;51.33;94091.63;5071415;28;20028;-77
2022/08/04 06:10:38;;;;;;;12.23;7.25;;;;;;;21.57;51.50;94079.53;5073439;28;20657;-78
2022/08/04 06:13:11;;;;;;;8.95;6.88;;;;;;;21.64;51.49;94095.84;5074298;28;20520;-77
2022/08/04 06:15:41;;;;;;;9.27;7.53;;;;;;;21.67;51.31;94097.78;5068838;28;20138;-76
2022/08/04 06:18:10;;;;;;;9.75;7.05;;;;;;;21.82;50.72;94107.56;5071878;28;20723;-77
2022/08/04 06:20:38;;;;;;;9.98;7.68;;;;;;;21.88;50.67;94108.78;5073850;28;20981;-76
2022/08/04 06:23:08;;;;;;;11.35;7.90;;;;;;;21.92;50.44;94106.06;5072508;28;20097;-77
2022/08/04 06:25:40;;;;;;;11.15;7.22;;;;;;;21.91;50.70;94107.22;5072413;28;20017;-79
2022/08/04 06:28:07;;;;;;;12.90;7.07;;;;;;;21.65;50.34;94059.50;5073025;28;20112;-77
2022/08/04 06:30:35;;;;;;;11.10;7.55;;;;;;;21.86;49.79;94089.41;5074242;28;20089;-77
2022/08/04 06:33:12;;;;;;;10.07;7.28;;;;;;;21.99;49.21;94098.78;5071974;28;20056;-77
2022/08/04 06:35:39;;;;;;;7.63;6.75;;;;;;;21.96;49.61;94107.66;5071705;28;20467;-78
2022/08/04 06:38:06;;;;;;;7.55;6.60;;;;;;;21.78;49.51;94098.66;5072567;28;20482;-76
2022/08/04 06:40:32;;;;;;;10.18;7.70;;;;;;;21.62;49.53;94100.84;5071689;28;20028;-78
2022/08/04 06:43:06;;;;;;;11.45;7.68;;;;;;;21.69;50.56;94106.31;5073181;28;20048;-78
2022/08/04 06:45:34;;;;;;;12.35;8.00;;;;;;;21.52;51.01;94107.69;5075334;28;20028;-76
2022/08/04 06:48:01;;;;;;;13.70;9.18;;;;;;;21.34;51.45;94109.50;5072607;28;20034;-78
2022/08/04 06:50:27;;;;;;;11.35;8.70;;;;;;;21.14;50.96;94095.41;5072774;28;20486;-77
2022/08/04 06:52:52;;;;;;;9.70;7.75;;;;;;;21.18;51.16;94111.66;5073381;28;20035;-76
2022/08/04 06:55:17;;;;;;;13.57;8.50;;;;;;;21.42;51.50;94108.41;5072979;28;20531;-77
2022/08/04 06:57:44;;;;;;;10.60;8.63;;;;;;;21.47;51.28;94099.94;5074062;28;20535;-78
2022/08/04 07:00:12;;;;;;;16.80;7.95;;;;;;;21.54;50.86;94101.91;5072973;28;20036;-77
2022/08/04 07:02:43;;;;;;;15.13;9.57;;;;;;;21.65;50.39;94110.94;5073587;28;20028;-78
2022/08/04 07:05:09;;;;;;;12.38;8.45;;;;;;;21.81;50.89;94108.72;5070505;28;20247;-78
2022/08/04 07:07:35;;;;;;;14.05;9.20;;;;;;;21.99;50.24;94108.84;5084025;28;20027;-78
2022/08/04 07:10:01;;;;;;;10.40;8.50;;;;;;;22.05;49.74;94096.47;5076036;28;20394;-78
2022/08/04 07:12:27;;;;;;;10.48;8.95;;;;;;;22.20;49.36;94109.72;5076383;28;20024;-76
2022/08/04 07:14:53;;;;;;;13.98;8.85;;;;;;;21.87;49.23;94072.00;5075514;28;20254;-77
2022/08/04 07:17:20;;;;;;;16.80;8.15;;;;;;;22.02;49.38;94108.06;5077117;28;20063;-78
2022/08/04 07:19:46;;;;;;;12.80;9.38;;;;;;;21.91;50.14;94099.09;5075839;28;20490;-78
2022/08/04 07:22:12;;;;;;;10.68;8.13;;;;;;;21.92;50.87;94093.31;5075536;28;20028;-78
2022/08/04 07:24:38;;;;;;;12.55;8.48;;;;;;;21.94;50.57;94087.53;5084512;28;20023;-78
2022/08/04 07:27:05;;;;;;;14.07;9.65;;;;;;;22.08;50.54;94101.94;5076239;28;20477;-76
2022/08/04 07:29:32;;;;;;;12.10;9.60;;;;;;;22.16;50.38;94097.31;5076019;28;20055;-78
2022/08/04 07:31:59;;;;;;;12.57;9.27;;;;;;;22.29;49.88;94091.22;5075504;28;20485;-77
2022/08/04 07:34:26;;;;;;;12.50;9.25;;;;;;;22.40;49.97;94085.06;5075402;28;20190;-78
2022/08/04 07:36:53;;;;;;;12.50;8.82;;;;;;;22.64;50.10;94096.00;5074820;28;20486;-79
2022/08/04 07:39:21;;;;;;;11.10;10.00;;;;;;;22.73;49.10;94098.38;5073486;28;20125;-77
2022/08/04 07:41:46;;;;;;;10.85;8.00;;;;;;;22.73;49.36;94082.84;5075734;28;20034;-76
2022/08/04 07:44:14;;;;;;;15.50;10.55;;;;;;;22.61;48.76;94085.16;5076580;28;20032;-77
2022/08/04 07:46:40;;;;;;;13.32;9.65;;;;;;;22.77;48.84;94093.72;5076910;28;20110;-77
2022/08/04 07:49:06;;;;;;;15.13;9.30;;;;;;;22.85;48.66;94100.72;5076120;28;20604;-77
2022/08/04 07:51:34;;;;;;;11.02;8.60;;;;;;;22.99;48.92;94106.19;5075585;28;20052;-78
2022/08/04 07:54:02;;;;;;;10.93;8.23;;;;;;;23.11;48.63;94102.34;5077253;28;20432;-78
2022/08/04 07:56:29;;;;;;;14.63;8.68;;;;;;;23.07;48.81;94096.13;5075379;28;20024;-78
2022/08/04 07:58:55;;;;;;;11.48;8.60;;;;;;;23.21;47.37;94106.22;5074598;28;20035;-77
2022/08/04 08:01:21;;;;;;;11.23;8.75;;;;;;;23.17;47.23;94105.47;5074331;28;20024;-78
2022/08/04 08:03:47;;;;;;;14.98;8.35;;;;;;;23.17;47.45;94103.53;5075340;28;20040;-78
2022/08/04 08:06:13;;;;;;;10.38;7.60;;;;;;;23.20;47.91;94093.81;5075193;28;20028;-76
2022/08/04 08:08:39;;;;;;;9.48;8.10;;;;;;;23.31;47.87;94095.38;5075307;28;20031;-77
2022/08/04 08:11:06;;;;;;;9.65;6.32;;;;;;;23.43;47.86;94088.78;5074745;28;20029;-77
2022/08/04 08:13:33;;;;;;;13.35;8.05;;;;;;;23.52;47.22;94089.97;5083613;28;20048;-77
2022/08/04 08:16:00;;;;;;;15.43;7.03;;;;;;;23.67;46.49;94090.75;5073843;28;20028;-77
2022/08/04 08:18:26;;;;;;;13.05;7.05;;;;;;;23.64;46.40;94080.66;5074504;28;20024;-76
2022/08/04 08:20:52;;;;;;;8.55;6.13;;;;;;;23.45;46.09;94067.47;5074936;28;20549;-78
2022/08/04 08:23:18;;;;;;;7.57;6.25;;;;;;;23.35;46.54;94085.31;5075368;28;20044;-78
2022/08/04 08:25:44;;;;;;;7.57;6.35;;;;;;;23.41;46.48;94070.19;5075913;28;20105;-77
2022/08/04 08:28:09;;;;;;;11.30;6.65;;;;;;;23.25;46.06;94072.50;5074959;28;20032;-78
2022/08/04 08:30:35;;;;;;;8.75;6.50;;;;;;;23.29;46.63;94102.34;5077209;28;20410;-77
2022/08/04 08:33:04;;;;;;;9.18;5.82;;;;;;;23.49;46.26;94100.84;5082744;28;20027;-77
2022/08/04 08:35:37;;;;;;;11.88;6.32;;;;;;;23.24;46.12;94083.75;5074837;28;20502;-77
2022/08/04 08:38:05;;;;;;;8.95;5.45;;;;;;;23.30;46.55;94082.19;5074005;28;20043;-78
2022/08/04 08:40:49;;;;;;;9.38;5.93;;;;;;;23.62;46.73;94096.56;5075441;28;20020;-78
2022/08/04 08:43:31;;;;;;;10.07;5.17;;;;;;;23.50;45.82;94096.97;5074417;28;20029;-78
2022/08/04 08:46:27;;;;;;;6.75;4.68;;;;;;;23.43;45.69;94096.94;5077038;28;20052;-77
2022/08/04 08:49:07;;;;;;;8.45;4.95;;;;;;;23.70;44.41;94092.69;5072404;28;20038;-76
2022/08/04 08:51:57;;;;;;;8.48;5.22;;;;;;;23.64;43.34;94096.97;5082822;28;20032;-78
2022/08/04 08:54:50;;;;;;;10.30;5.28;;;;;;;23.68;44.52;94096.94;5076965;28;20020;-77
2022/08/04 08:57:34;;;;;;;5.90;4.25;;;;;;;23.82;43.98;94095.00;5074302;28;20036;-78
2022/08/04 09:00:11;;;;;;;6.18;4.82;;;;;;;23.80;43.78;94097.34;5075858;28;20059;-79
2022/08/04 09:03:22;;;;;;;7.72;6.10;;;;;;;23.82;43.75;94095.00;5073073;28;20043;-77
2022/08/04 09:05:53;;;;;;;5.65;4.50;;;;;;;23.85;44.56;94096.19;5073164;28;20119;-78
2022/08/04 09:08:59;;;;;;;5.40;4.45;;;;;;;23.93;43.00;94081.41;5073417;28;20036;-78
2022/08/04 09:11:29;;;;;;;5.95;4.40;;;;;;;24.02;43.52;94087.19;5074436;28;20070;-77
2022/08/04 09:14:08;;;;;;;8.45;4.93;;;;;;;24.20;42.59;94073.63;5081927;28;20028;-77
2022/08/04 09:16:36;;;;;;;4.97;4.30;;;;;;;24.38;42.67;94087.91;5073572;28;20036;-78
2022/08/04 09:19:44;;;;;;;4.22;3.83;;;;;;;24.49;41.06;94080.50;5073396;28;20032;-77
2022/08/04 09:22:21;;;;;;;4.47;2.85;;;;;;;24.57;40.74;94082.00;5014947;28;20061;-77
2022/08/04 09:24:56;;;;;;;4.53;3.80;;;;;;;24.65;40.91;94083.50;5084016;28;20032;-77
2022/08/04 09:27:44;;;;;;;5.32;2.60;;;;;;;24.52;39.83;94047.06;5073801;28;20059;-78
2022/08/04 09:30:12;;;;;;;3.53;3.20;;;;;;;24.87;41.02;94078.00;5073954;28;20651;-78
2022/08/04 09:32:37;;;;;;;2.78;2.28;;;;;;;25.00;39.45;94074.41;5081429;28;20119;-77
2022/08/04 09:35:43;;;;;;;3.13;2.45;;;;;;;24.89;38.51;94048.44;5073106;28;20110;-78
2022/08/04 09:38:50;;;;;;;3.63;2.25;;;;;;;25.09;38.32;94071.25;5072345;28;20088;-79
2022/08/04 09:41:29;;;;;;;2.50;2.30;;;;;;;24.92;37.51;94080.31;5072884;28;20081;-77
2022/08/04 09:44:07;;;;;;;2.28;1.92;;;;;;;25.11;38.06;94066.97;5072248;28;20704;-78
2022/08/04 09:46:35;;;;;;;3.50;2.83;;;;;;;25.28;37.95;94076.16;5081955;28;20189;-77
2022/08/04 09:49:22;;;;;;;2.63;2.20;;;;;;;25.29;38.09;94061.38;5072965;28;20676;-77
2022/08/04 09:51:52;;;;;;;3.75;2.00;;;;;;;25.26;36.67;94073.06;5047894;28;20051;-78
2022/08/04 09:54:27;;;;;;;3.35;1.50;;;;;;;25.08;35.53;94047.91;5073510;28;20121;-78
2022/08/04 09:57:03;;;;;;;3.33;2.00;;;;;;;25.13;35.79;94071.97;5074502;28;20034;-79
2022/08/04 09:59:40;;;;;;;6.03;2.63;;;;;;;25.25;35.91;94071.53;5074988;28;20024;-78
2022/08/04 10:02:08;;;;;;;2.53;2.03;;;;;;;25.12;34.88;94067.75;5072163;28;20071;-78
2022/08/04 10:04:38;;;;;;;3.08;1.80;;;;;;;25.24;33.87;94064.53;5071496;28;20041;-79
2022/08/04 10:07:22;;;;;;;5.25;2.42;;;;;;;25.43;33.03;94060.50;5072740;28;20780;-78
2022/08/04 10:10:17;;;;;;;2.17;1.98;;;;;;;25.52;35.80;94066.25;5073015;28;20402;-78
2022/08/04 10:12:56;;;;;;;2.92;1.80;;;;;;;25.55;36.00;94057.31;5072137;28;20601;-77
2022/08/04 10:16:01;;;;;;;3.35;2.35;;;;;;;25.68;35.32;94056.41;5072639;28;20030;-78
2022/08/04 10:18:56;;;;;;;4.20;2.63;;;;;;;25.01;35.86;94039.81;5017681;28;20628;-77
2022/08/04 10:21:30;;;;;;;2.87;2.00;;;;;;;25.20;34.18;94061.84;5080279;28;20051;-79
2022/08/04 10:24:23;;;;;;;2.80;2.03;;;;;;;25.10;35.75;94059.19;5074902;28;21122;-77
2022/08/04 10:26:54;;;;;;;3.47;2.22;;;;;;;25.34;35.71;94052.81;5072671;28;20021;-78
2022/08/04 10:29:19;;;;;;;2.67;2.22;;;;;;;25.56;34.34;94053.41;5073470;28;20032;-79
2022/08/04 10:31:58;;;;;;;2.30;1.77;;;;;;;25.38;33.23;94037.22;5072850;28;20033;-78
2022/08/04 10:34:28;;;;;;;3.25;2.20;;;;;;;25.64;34.13;94055.66;5068796;28;20478;-77
2022/08/04 10:37:06;;;;;;;2.90;2.20;;;;;;;25.34;29.86;94031.03;5072289;28;20044;-77
2022/08/04 10:42:58;;;;;;;5.63;1.92;;;;;;;25.58;31.08;94046.38;5075887;28;20093;-78
2022/08/04 10:45:40;;;;;;;2.45;1.60;;;;;;;25.53;30.25;94021.53;5093140;28;20027;-77
2022/08/04 10:48:16;;;;;;;2.00;1.77;;;;;;;25.68;28.79;94023.72;5077802;28;20062;-77
2022/08/04 10:51:01;;;;;;;2.30;1.73;;;;;;;25.87;28.66;94035.19;5084078;28;20386;-77
2022/08/04 10:53:30;;;;;;;2.00;1.60;;;;;;;25.91;29.26;94036.00;5076501;28;20067;-77
2022/08/04 10:56:21;;;;;;;2.72;1.52;;;;;;;25.87;32.96;94029.75;5075996;28;20024;-77
2022/08/04 10:58:56;;;;;;;2.25;1.85;;;;;;;25.89;31.12;94032.88;5064784;28;20048;-77
2022/08/04 11:01:31;;;;;;;2.95;2.08;;;;;;;25.69;30.54;94025.28;5076445;28;20111;-77
2022/08/04 11:04:04;;;;;;;3.05;2.08;;;;;;;25.69;30.64;94025.28;5076382;28;20017;-77
2022/08/04 11:06:32;;;;;;;2.45;1.90;;;;;;;25.70;30.86;94023.31;5076706;28;20142;-78
2022/08/04 11:08:59;;;;;;;4.22;2.30;;;;;;;25.85;31.99;94021.22;5076246;28;20035;-77
2022/08/04 11:11:46;;;;;;;1.90;1.80;;;;;;;25.94;30.45;94024.28;5074707;28;20028;-77
2022/08/04 11:14:18;;;;;;;2.20;2.00;;;;;;;26.02;30.73;94012.88;5074630;28;20032;-76
2022/08/04 11:16:52;;;;;;;1.95;1.60;;;;;;;26.21;30.28;94016.16;5076131;28;20037;-77
2022/08/04 11:19:39;;;;;;;3.22;1.83;;;;;;;26.21;30.23;94006.03;5074930;28;20044;-77
2022/08/04 11:22:23;;;;;;;2.97;1.70;;;;;;;26.27;31.46;94014.53;5073814;28;20477;-77
2022/08/04 11:25:35;;;;;;;2.03;1.75;;;;;;;26.13;30.42;94010.81;5085411;28;20037;-79
2022/08/04 11:28:22;;;;;;;1.92;1.75;;;;;;;26.09;30.12;94009.31;5023692;28;20029;-77
2022/08/04 11:31:06;;;;;;;2.40;1.80;;;;;;;26.17;30.42;94010.75;5072838;28;20047;-77
2022/08/04 11:33:51;;;;;;;2.57;2.00;;;;;;;26.12;31.34;94009.25;5074405;28;20028;-77
2022/08/04 11:36:38;;;;;;;9.38;2.20;;;;;;;26.45;30.62;94018.59;5064854;28;20033;-76
2022/08/04 11:39:22;;;;;;;2.70;2.22;;;;;;;26.41;30.63;93996.06;5075876;28;20032;-78
2022/08/04 11:41:53;;;;;;;2.55;2.10;;;;;;;26.53;33.75;94011.91;5081393;28;20032;-76
2022/08/04 11:44:36;;;;;;;2.20;2.00;;;;;;;26.33;32.92;93985.66;5082652;28;20024;-77
2022/08/04 11:47:10;;;;;;;3.72;2.10;;;;;;;26.53;30.13;93984.63;5073888;28;20656;-77
2022/08/04 11:49:51;;;;;;;2.10;1.85;;;;;;;26.62;29.93;93975.94;5075631;28;20035;-78
2022/08/04 11:52:19;;;;;;;2.50;2.00;;;;;;;26.63;30.85;93987.63;5076218;28;20052;-76
2022/08/04 11:54:46;;;;;;;2.25;2.05;;;;;;;26.23;30.79;93949.16;5075166;28;20476;-77
2022/08/04 11:57:11;;;;;;;2.28;1.92;;;;;;;26.67;31.09;93988.34;5074354;28;20034;-77
2022/08/04 11:59:39;;;;;;;4.80;2.17;;;;;;;26.83;30.26;93993.97;5074135;28;20028;-77
2022/08/04 12:02:23;;;;;;;5.45;2.42;;;;;;;26.88;32.20;93998.94;5073529;28;20032;-76
2022/08/04 12:05:00;;;;;;;4.32;1.98;;;;;;;26.73;31.21;93984.75;5076007;28;20056;-78
2022/08/04 12:08:01;;;;;;;3.60;2.28;;;;;;;26.80;31.56;93992.03;5092163;28;20027;-77
2022/08/04 12:10:35;;;;;;;2.35;2.08;;;;;;;26.64;30.97;93989.16;5076966;28;20096;-77
2022/08/04 12:13:22;;;;;;;2.50;1.77;;;;;;;26.44;30.50;94006.16;5074727;28;20028;-77
2022/08/04 12:16:09;;;;;;;2.75;1.75;;;;;;;26.41;30.90;93996.06;5082589;28;20029;-77
2022/08/04 12:18:42;;;;;;;3.72;2.58;;;;;;;26.51;33.27;93981.53;5072253;28;20027;-78
2022/08/04 12:21:17;;;;;;;2.47;2.20;;;;;;;26.65;31.31;93999.66;5072879;28;20072;-76